General Aviation Weather

Text Reports

Enter one or more of the following location identifiers separated by a space:

Zip Code, Four-Character ICAO or Three-Character IATA airport codes.

METAR - Aviation Routine Weather Report
KETB - West Bend, Wisconsin
Updated at 4:35 AM GMT on August 30, 2014 (11:35 PM CDT):
METAR KETB 300435Z AUTO 16004KT 10SM SCT070 SCT080 SCT110 21/18 A2984 RMK AO2
TAF - Terminal Area Forecast
KETB - West Bend, Wisconsin
Updated at 4:35 AM GMT on August 30, 2014 (11:35 PM CDT):
No TAF is currently available for this location.
Decoded:
No decoded TAF is available.
PIREP - Pilot Weather Report
KETB - West Bend, Wisconsin
Updated at 4:35 AM GMT on August 30, 2014 (11:35 PM CDT):
No PIREP is currently available for this location.
AIRMET - Airmens Meteorological Information
KETB - West Bend, Wisconsin
Updated at 4:35 AM GMT on August 30, 2014 (11:35 PM CDT):
No AIRMET is currently available for this location.
SIGMET - Significant Meteorological Information
KETB - West Bend, Wisconsin
Updated at 4:35 AM GMT on August 30, 2014 (11:35 PM CDT):
No SIGMET is currently available for this location.
NOTAM - Notice to Airmen
KETB - West Bend, Wisconsin
Updated at 4:35 AM GMT on August 30, 2014 (11:35 PM CDT):
No NOTAM is currently available for this location.
Forecast Area
KETB - West Bend, Wisconsin
Updated at 4:35 AM GMT on August 30, 2014 (11:35 PM CDT):
No NOTAM is currently available for this location.
Aviation Weather Maps